createdAt,value
2018-11-11T00:01:43.092Z,9.80
2018-11-11T00:04:11.644Z,9.80
2018-11-11T00:06:40.195Z,9.70
2018-11-11T00:09:09.648Z,9.70
2018-11-11T00:11:38.320Z,9.70
2018-11-11T00:14:06.963Z,9.80
2018-11-11T00:16:35.512Z,9.80
2018-11-11T00:19:04.115Z,9.90
2018-11-11T00:21:32.674Z,9.90
2018-11-11T00:24:01.229Z,9.90
2018-11-11T00:26:29.768Z,9.80
2018-11-11T00:28:58.308Z,9.70
2018-11-11T00:31:26.852Z,9.60
2018-11-11T00:33:55.404Z,9.50
2018-11-11T00:36:23.946Z,9.60
2018-11-11T00:38:52.499Z,9.60
2018-11-11T00:41:21.068Z,9.70
2018-11-11T00:43:49.921Z,9.70
2018-11-11T00:46:18.471Z,9.60
2018-11-11T00:48:47.034Z,9.60
2018-11-11T00:51:15.619Z,9.50
2018-11-11T00:53:44.144Z,9.40
2018-11-11T00:56:12.675Z,9.40
2018-11-11T00:58:41.228Z,9.40
2018-11-11T01:01:09.792Z,9.40
2018-11-11T01:03:38.355Z,9.40
2018-11-11T01:06:06.896Z,9.40
2018-11-11T01:08:35.435Z,9.40
2018-11-11T01:11:03.997Z,9.50
2018-11-11T01:13:32.560Z,9.50
2018-11-11T01:16:01.153Z,9.60
2018-11-11T01:18:29.711Z,9.60
2018-11-11T01:20:58.269Z,9.70
2018-11-11T01:23:26.820Z,9.70
2018-11-11T01:25:55.387Z,9.70
2018-11-11T01:28:23.939Z,9.60
2018-11-11T01:30:52.471Z,9.60
2018-11-11T01:33:21.071Z,9.60
2018-11-11T01:35:49.628Z,9.50
2018-11-11T01:38:18.184Z,9.50
2018-11-11T01:40:46.760Z,9.40
2018-11-11T01:43:15.308Z,9.40
2018-11-11T01:45:43.872Z,9.40
2018-11-11T01:48:12.412Z,9.40
2018-11-11T01:50:40.960Z,9.40
2018-11-11T01:53:09.556Z,9.30
2018-11-11T01:55:38.118Z,9.30
2018-11-11T01:58:06.756Z,9.40
2018-11-11T02:00:35.301Z,9.40
2018-11-11T02:03:03.909Z,9.30
2018-11-11T02:05:32.472Z,9.30
2018-11-11T02:08:01.037Z,9.30
2018-11-11T02:10:29.608Z,9.30
2018-11-11T02:12:58.203Z,9.30
2018-11-11T02:15:26.775Z,9.30
2018-11-11T02:17:55.314Z,9.30
2018-11-11T02:20:24.240Z,9.30
2018-11-11T02:22:52.808Z,9.40
2018-11-11T02:25:21.337Z,9.40
2018-11-11T02:27:49.889Z,9.40
2018-11-11T02:30:19.627Z,9.40
2018-11-11T02:32:48.204Z,9.40
2018-11-11T02:35:16.763Z,9.50
2018-11-11T02:37:45.559Z,9.50
2018-11-11T02:40:16.124Z,9.50
2018-11-11T02:42:45.057Z,9.60
2018-11-11T02:45:14.682Z,9.50
2018-11-11T02:47:43.223Z,9.50
2018-11-11T02:50:13.071Z,9.40
2018-11-11T02:52:42.298Z,9.40
2018-11-11T02:55:11.279Z,9.50
2018-11-11T02:57:40.402Z,9.50
2018-11-11T03:00:12.657Z,9.50
2018-11-11T03:02:41.773Z,9.60
2018-11-11T03:05:11.667Z,9.60
2018-11-11T03:07:40.246Z,9.60
2018-11-11T03:10:09.683Z,9.60
2018-11-11T03:12:38.708Z,9.70
2018-11-11T03:15:08.120Z,9.80
2018-11-11T03:17:36.892Z,9.80
2018-11-11T03:20:05.972Z,9.80
2018-11-11T03:22:34.520Z,9.80
2018-11-11T03:25:03.277Z,9.90
2018-11-11T03:27:32.496Z,9.90
2018-11-11T03:30:01.073Z,9.80
2018-11-11T03:32:29.644Z,9.90
2018-11-11T03:34:58.219Z,9.90
2018-11-11T03:37:26.777Z,9.90
2018-11-11T03:39:55.364Z,9.90
2018-11-11T03:42:23.912Z,9.90
2018-11-11T03:44:52.464Z,9.90
2018-11-11T03:47:21.010Z,9.90
2018-11-11T03:49:49.569Z,9.80
2018-11-11T03:52:18.140Z,9.80
2018-11-11T03:54:46.705Z,9.80
2018-11-11T03:57:15.257Z,9.80
2018-11-11T03:59:43.835Z,9.70
2018-11-11T04:02:12.400Z,9.70
2018-11-11T04:04:40.963Z,9.60
2018-11-11T04:07:09.517Z,9.60
2018-11-11T04:09:38.071Z,9.50
2018-11-11T04:12:06.635Z,9.50
2018-11-11T04:14:35.196Z,9.50
2018-11-11T04:17:03.816Z,9.50
2018-11-11T04:19:32.551Z,9.50
2018-11-11T04:22:05.292Z,9.60
2018-11-11T04:24:33.845Z,9.60
2018-11-11T04:27:02.439Z,9.60
2018-11-11T04:29:31.004Z,9.60
2018-11-11T04:31:59.531Z,9.60
2018-11-11T04:34:28.059Z,9.60
2018-11-11T04:36:56.619Z,9.60
2018-11-11T04:39:25.286Z,9.60
2018-11-11T04:41:53.774Z,9.50
2018-11-11T04:44:22.349Z,9.50
2018-11-11T04:46:50.884Z,9.50
2018-11-11T04:49:19.457Z,9.50
2018-11-11T04:51:48.019Z,9.60
2018-11-11T04:54:16.763Z,9.60
2018-11-11T04:56:45.312Z,9.70
2018-11-11T04:59:13.865Z,9.70
2018-11-11T05:01:42.522Z,9.80
2018-11-11T05:04:10.988Z,9.80
2018-11-11T05:06:39.550Z,9.80
2018-11-11T05:09:10.260Z,9.80
2018-11-11T05:11:39.046Z,9.80
2018-11-11T05:14:07.632Z,9.80
2018-11-11T05:16:36.195Z,9.80
2018-11-11T05:19:05.235Z,9.70
2018-11-11T05:21:33.789Z,9.70
2018-11-11T05:24:02.496Z,9.60
2018-11-11T05:26:31.045Z,9.60
2018-11-11T05:28:59.583Z,9.60
2018-11-11T05:31:28.120Z,9.60
2018-11-11T05:33:56.668Z,9.50
2018-11-11T05:36:25.241Z,9.40
2018-11-11T05:38:53.808Z,9.40
2018-11-11T05:41:22.343Z,9.40
2018-11-11T05:43:50.891Z,9.40
2018-11-11T05:46:19.507Z,9.50
2018-11-11T05:48:48.027Z,9.50
2018-11-11T05:51:16.594Z,9.60
2018-11-11T05:53:45.132Z,9.60
2018-11-11T05:56:13.684Z,9.60
2018-11-11T05:58:42.223Z,9.60
2018-11-11T06:01:10.842Z,9.60
2018-11-11T06:03:39.412Z,9.60
2018-11-11T06:06:08.000Z,9.60
2018-11-11T06:08:36.528Z,9.70
2018-11-11T06:11:05.091Z,9.60
2018-11-11T06:13:33.655Z,9.70
2018-11-11T06:16:02.194Z,9.60
2018-11-11T06:18:30.736Z,9.60
2018-11-11T06:20:59.280Z,9.70
2018-11-11T06:23:27.831Z,9.60
2018-11-11T06:25:56.400Z,9.60
2018-11-11T06:28:24.932Z,9.60
2018-11-11T06:30:53.476Z,9.50
2018-11-11T06:33:22.035Z,9.50
2018-11-11T06:35:50.567Z,9.40
2018-11-11T06:38:19.141Z,9.50
2018-11-11T06:40:47.765Z,9.50
2018-11-11T06:43:16.280Z,9.60
2018-11-11T06:45:44.804Z,9.60
2018-11-11T06:48:13.473Z,9.60
2018-11-11T06:50:43.030Z,9.60
2018-11-11T06:53:11.560Z,9.60
2018-11-11T06:55:40.112Z,9.60
2018-11-11T06:58:08.765Z,9.60
2018-11-11T07:00:37.261Z,9.60
2018-11-11T07:03:16.852Z,9.60
2018-11-11T07:05:45.667Z,9.60
2018-11-11T07:08:14.219Z,9.70
2018-11-11T07:10:42.808Z,9.70
2018-11-11T07:13:11.368Z,9.80
2018-11-11T07:15:40.015Z,9.90
2018-11-11T07:18:08.575Z,10.00
2018-11-11T07:20:37.121Z,10.00
2018-11-11T07:23:06.301Z,10.00
2018-11-11T07:25:34.864Z,10.00
2018-11-11T07:28:03.432Z,10.10
2018-11-11T07:30:32.000Z,10.10
2018-11-11T07:33:00.556Z,10.20
2018-11-11T07:35:29.127Z,10.20
2018-11-11T07:37:57.672Z,10.10
2018-11-11T07:40:26.219Z,10.10
2018-11-11T07:42:54.764Z,10.00
2018-11-11T07:45:23.344Z,10.00
2018-11-11T07:47:51.935Z,9.90
2018-11-11T07:50:20.439Z,10.00
2018-11-11T07:52:49.019Z,10.00
2018-11-11T07:55:17.609Z,10.10
2018-11-11T07:57:46.136Z,10.10
2018-11-11T08:00:14.952Z,10.20
2018-11-11T08:02:43.756Z,10.30
2018-11-11T08:05:12.323Z,10.40
2018-11-11T08:07:40.909Z,10.50
2018-11-11T08:10:20.453Z,10.50
2018-11-11T08:12:49.232Z,10.60
2018-11-11T08:15:17.796Z,10.60
2018-11-11T08:17:46.364Z,10.60
2018-11-11T08:20:15.015Z,10.60
2018-11-11T08:22:43.560Z,10.50
2018-11-11T08:25:12.155Z,10.60
2018-11-11T08:27:40.672Z,10.60
2018-11-11T08:30:09.692Z,10.60
2018-11-11T08:32:38.655Z,10.60
2018-11-11T08:35:08.156Z,10.70
2018-11-11T08:37:36.787Z,10.80
2018-11-11T08:40:06.160Z,10.90
2018-11-11T08:42:35.340Z,11.00
2018-11-11T08:45:04.068Z,11.10
2018-11-11T08:47:33.289Z,11.10
2018-11-11T08:50:01.836Z,11.20
2018-11-11T08:52:30.428Z,11.20
2018-11-11T08:54:58.989Z,11.20
2018-11-11T08:57:27.605Z,11.20
2018-11-11T08:59:56.152Z,11.20
2018-11-11T09:02:24.708Z,11.20
2018-11-11T09:04:53.299Z,11.30
2018-11-11T09:07:21.849Z,11.40
2018-11-11T09:09:50.389Z,11.40
2018-11-11T09:12:18.964Z,11.40
2018-11-11T09:14:47.543Z,11.40
2018-11-11T09:17:16.075Z,11.40
2018-11-11T09:19:44.652Z,11.40
2018-11-11T09:22:13.279Z,11.40
2018-11-11T09:24:41.833Z,11.30
2018-11-11T09:27:10.400Z,11.30
2018-11-11T09:29:39.070Z,11.30
2018-11-11T09:32:07.536Z,11.30
2018-11-11T09:34:36.116Z,11.20
2018-11-11T09:37:04.736Z,11.20
2018-11-11T09:39:33.288Z,11.10
2018-11-11T09:42:01.856Z,11.20
2018-11-11T09:44:30.432Z,11.30
2018-11-11T09:46:58.983Z,11.40
2018-11-11T09:49:27.541Z,11.50
2018-11-11T09:51:56.102Z,11.50
2018-11-11T09:54:24.649Z,11.50
2018-11-11T09:56:53.220Z,11.50
2018-11-11T09:59:21.760Z,11.50
2018-11-11T10:01:50.433Z,11.60
2018-11-11T10:04:28.015Z,11.60
2018-11-11T10:06:59.727Z,11.70
2018-11-11T10:09:50.044Z,11.80
2018-11-11T10:12:26.291Z,11.80
2018-11-11T10:14:59.094Z,11.90
2018-11-11T10:17:32.385Z,12.00
2018-11-11T10:20:07.701Z,12.00
2018-11-11T10:22:41.684Z,12.10
2018-11-11T10:25:15.536Z,12.20
2018-11-11T10:27:51.767Z,12.20
2018-11-11T10:30:27.300Z,12.20
2018-11-11T10:33:12.352Z,12.30
2018-11-11T10:35:49.323Z,12.30
2018-11-11T10:38:27.276Z,12.40
2018-11-11T10:41:03.117Z,12.50
2018-11-11T10:44:01.912Z,12.50
2018-11-11T10:46:35.331Z,12.60
2018-11-11T10:49:06.493Z,12.70
2018-11-11T10:51:35.404Z,12.80
2018-11-11T10:54:04.117Z,12.90
2018-11-11T10:56:32.652Z,13.00
2018-11-11T10:59:01.201Z,13.10
2018-11-11T11:01:34.981Z,13.10
2018-11-11T11:04:03.893Z,13.20
2018-11-11T11:07:07.900Z,13.30
2018-11-11T11:09:36.449Z,13.40
2018-11-11T11:12:05.068Z,13.50
2018-11-11T11:14:33.649Z,13.60
2018-11-11T11:17:02.200Z,13.80
2018-11-11T11:19:30.788Z,13.90
2018-11-11T11:21:59.397Z,14.00
2018-11-11T11:24:27.950Z,13.90
2018-11-11T11:26:56.525Z,13.90
2018-11-11T11:29:25.102Z,13.90
2018-11-11T11:31:53.669Z,13.90
2018-11-11T11:34:22.213Z,13.80
2018-11-11T11:36:50.765Z,13.80
2018-11-11T11:39:19.365Z,13.80
2018-11-11T11:41:47.900Z,13.80
2018-11-11T11:44:16.538Z,13.80
2018-11-11T11:46:45.063Z,13.90
2018-11-11T11:49:13.660Z,14.00
2018-11-11T11:51:42.238Z,14.00
2018-11-11T11:54:10.788Z,14.00
2018-11-11T11:56:39.375Z,14.10
2018-11-11T11:59:07.989Z,14.10
2018-11-11T12:01:36.609Z,14.10
2018-11-11T12:04:05.392Z,14.20
2018-11-11T12:06:33.975Z,14.20
2018-11-11T12:09:02.581Z,14.20
2018-11-11T12:11:31.148Z,14.30
2018-11-11T12:13:59.697Z,14.40
2018-11-11T12:16:28.314Z,14.50
2018-11-11T12:18:56.854Z,14.50
2018-11-11T12:21:25.432Z,14.50
2018-11-11T12:23:53.996Z,14.60
2018-11-11T12:26:22.556Z,14.70
2018-11-11T12:28:51.136Z,14.70
2018-11-11T12:31:19.668Z,14.70
2018-11-11T12:33:48.280Z,14.60
2018-11-11T12:36:16.835Z,14.70
2018-11-11T12:38:45.424Z,14.70
2018-11-11T12:41:13.998Z,14.80
2018-11-11T12:43:42.556Z,14.90
2018-11-11T12:46:11.148Z,15.10
2018-11-11T12:48:39.860Z,15.20
2018-11-11T12:51:08.449Z,15.30
2018-11-11T12:53:37.021Z,15.40
2018-11-11T12:56:05.832Z,15.30
2018-11-11T12:58:34.382Z,15.20
2018-11-11T13:01:02.929Z,15.20
2018-11-11T13:03:31.516Z,15.10
2018-11-11T13:06:00.072Z,15.00
2018-11-11T13:08:28.651Z,15.10
2018-11-11T13:10:57.196Z,15.10
2018-11-11T13:13:25.744Z,15.20
2018-11-11T13:15:54.310Z,15.30
2018-11-11T13:18:22.858Z,15.30
2018-11-11T13:20:51.416Z,15.30
2018-11-11T13:23:19.971Z,15.30
2018-11-11T13:25:48.533Z,15.30
2018-11-11T13:28:17.075Z,15.40
2018-11-11T13:30:45.640Z,15.50
2018-11-11T13:33:14.203Z,15.50
2018-11-11T13:35:42.740Z,15.50
2018-11-11T13:38:11.338Z,15.50
2018-11-11T13:40:40.452Z,15.60
2018-11-11T13:43:09.039Z,15.60
2018-11-11T13:45:37.547Z,15.60
2018-11-11T13:48:06.123Z,15.60
2018-11-11T13:50:34.668Z,15.60
2018-11-11T13:53:03.835Z,15.60
2018-11-11T13:55:32.398Z,15.50
2018-11-11T13:58:00.931Z,15.50
2018-11-11T14:00:29.504Z,15.50
2018-11-11T14:02:58.084Z,15.60
2018-11-11T14:05:26.608Z,15.70
2018-11-11T14:07:55.542Z,15.80
2018-11-11T14:10:24.099Z,15.80
2018-11-11T14:12:52.630Z,16.00
2018-11-11T14:15:23.311Z,16.00
2018-11-11T14:17:53.410Z,16.10
2018-11-11T14:20:23.071Z,16.10
2018-11-11T14:22:52.380Z,16.10
2018-11-11T14:25:23.833Z,16.10
2018-11-11T14:27:52.317Z,16.10
2018-11-11T14:30:24.906Z,16.10
2018-11-11T14:32:54.376Z,16.20
2018-11-11T14:35:22.928Z,16.20
2018-11-11T14:37:51.748Z,16.10
2018-11-11T14:40:26.043Z,16.00
2018-11-11T14:42:54.644Z,15.80
2018-11-11T14:45:23.552Z,15.70
2018-11-11T14:47:53.494Z,15.50
2018-11-11T14:50:22.662Z,15.40
2018-11-11T14:52:51.221Z,15.40
2018-11-11T14:55:25.310Z,15.30
2018-11-11T14:57:53.974Z,15.20
2018-11-11T15:00:26.641Z,15.10
2018-11-11T15:03:04.624Z,15.00
2018-11-11T15:05:33.451Z,15.00
2018-11-11T15:08:02.162Z,14.90
2018-11-11T15:10:30.831Z,14.80
2018-11-11T15:12:59.419Z,14.80
2018-11-11T15:15:27.992Z,14.70
2018-11-11T15:17:57.493Z,14.50
2018-11-11T15:20:26.872Z,14.40
2018-11-11T15:22:55.308Z,14.40
2018-11-11T15:25:25.534Z,14.30
2018-11-11T15:27:54.031Z,14.20
2018-11-11T15:30:23.824Z,14.10
2018-11-11T15:32:52.832Z,14.00
2018-11-11T15:35:21.434Z,13.90
2018-11-11T15:37:49.973Z,13.80
2018-11-11T15:40:19.863Z,13.70
2018-11-11T15:42:48.435Z,13.60
2018-11-11T15:45:24.931Z,13.60
2018-11-11T15:47:53.620Z,13.50
2018-11-11T15:50:27.512Z,13.40
2018-11-11T15:52:58.473Z,13.30
2018-11-11T15:55:28.749Z,13.20
2018-11-11T15:57:57.316Z,13.20
2018-11-11T16:00:27.328Z,13.10
2018-11-11T16:02:55.887Z,13.00
2018-11-11T16:05:24.902Z,12.90
2018-11-11T16:07:53.884Z,12.90
2018-11-11T16:10:25.972Z,12.80
2018-11-11T16:12:54.568Z,12.70
2018-11-11T16:15:26.459Z,12.60
2018-11-11T16:17:56.607Z,12.50
2018-11-11T16:20:26.630Z,12.50
2018-11-11T16:22:56.364Z,12.50
2018-11-11T16:25:25.413Z,12.40
2018-11-11T16:27:54.103Z,12.40
2018-11-11T16:30:30.280Z,12.40
2018-11-11T16:32:59.636Z,12.40
2018-11-11T16:35:29.003Z,12.40
2018-11-11T16:37:57.935Z,12.30
2018-11-11T16:40:28.437Z,12.30
2018-11-11T16:42:57.284Z,12.20
2018-11-11T16:45:26.957Z,12.20
2018-11-11T16:47:55.587Z,12.10
2018-11-11T16:50:26.672Z,12.10
2018-11-11T16:52:56.348Z,12.10
2018-11-11T16:55:26.740Z,12.10
2018-11-11T16:57:55.315Z,12.10
2018-11-11T17:00:26.629Z,12.00
2018-11-11T17:02:56.107Z,12.00
2018-11-11T17:05:26.409Z,12.00
2018-11-11T17:07:55.364Z,12.00
2018-11-11T17:10:25.865Z,12.00
2018-11-11T17:12:55.554Z,12.00
2018-11-11T17:15:26.144Z,12.00
2018-11-11T17:17:54.696Z,12.00
2018-11-11T17:20:24.014Z,11.90
2018-11-11T17:22:53.341Z,11.90
2018-11-11T17:25:22.783Z,11.80
2018-11-11T17:27:51.659Z,11.80
2018-11-11T17:30:21.605Z,11.70
2018-11-11T17:32:50.866Z,11.60
2018-11-11T17:35:19.412Z,11.50
2018-11-11T17:37:48.095Z,11.50
2018-11-11T17:40:18.912Z,11.40
2018-11-11T17:42:48.420Z,11.30
2018-11-11T17:45:17.338Z,11.30
2018-11-11T17:47:46.461Z,11.20
2018-11-11T17:50:19.960Z,11.10
2018-11-11T17:52:48.511Z,11.10
2018-11-11T17:55:18.400Z,11.00
2018-11-11T17:57:46.936Z,11.00
2018-11-11T18:00:17.789Z,10.90
2018-11-11T18:02:46.489Z,10.90
2018-11-11T18:05:16.220Z,10.90
2018-11-11T18:07:44.853Z,10.90
2018-11-11T18:10:14.785Z,10.80
2018-11-11T18:12:43.346Z,10.80
2018-11-11T18:15:13.536Z,10.80
2018-11-11T18:17:42.482Z,10.70
2018-11-11T18:20:13.724Z,10.70
2018-11-11T18:22:42.440Z,10.70
2018-11-11T18:25:11.032Z,10.70
2018-11-11T18:27:39.719Z,10.70
2018-11-11T18:30:13.945Z,10.70
2018-11-11T18:32:42.579Z,10.70
2018-11-11T18:35:12.607Z,10.70
2018-11-11T18:37:41.220Z,10.70
2018-11-11T18:40:11.390Z,10.60
2018-11-11T18:42:39.882Z,10.70
2018-11-11T18:45:10.608Z,10.60
2018-11-11T18:47:39.235Z,10.60
2018-11-11T18:50:10.152Z,10.60
2018-11-11T18:52:38.835Z,10.60
2018-11-11T18:55:07.872Z,10.60
2018-11-11T18:57:36.877Z,10.60
2018-11-11T19:00:07.013Z,10.60
2018-11-11T19:02:35.571Z,10.60
2018-11-11T19:05:04.184Z,10.60
2018-11-11T19:07:32.739Z,10.60
2018-11-11T19:10:01.343Z,10.60
2018-11-11T19:12:29.837Z,10.60
2018-11-11T19:14:58.397Z,10.60
2018-11-11T19:17:26.948Z,10.60
2018-11-11T19:19:55.539Z,10.60
2018-11-11T19:22:24.081Z,10.60
2018-11-11T19:24:52.744Z,10.60
2018-11-11T19:27:21.265Z,10.60
2018-11-11T19:29:49.791Z,10.60
2018-11-11T19:32:18.356Z,10.60
2018-11-11T19:34:46.920Z,10.50
2018-11-11T19:37:15.488Z,10.50
2018-11-11T19:39:44.021Z,10.50
2018-11-11T19:42:12.589Z,10.40
2018-11-11T19:44:41.153Z,10.40
2018-11-11T19:47:09.733Z,10.30
2018-11-11T19:49:38.296Z,10.20
2018-11-11T19:52:07.093Z,10.20
2018-11-11T19:54:35.684Z,10.10
2018-11-11T19:57:04.336Z,10.00
2018-11-11T19:59:32.904Z,10.00
2018-11-11T20:02:01.460Z,10.00
2018-11-11T20:04:30.008Z,9.90
2018-11-11T20:06:58.548Z,9.90
2018-11-11T20:09:27.113Z,9.90
2018-11-11T20:11:55.672Z,9.80
2018-11-11T20:14:24.240Z,9.80
2018-11-11T20:16:52.796Z,9.70
2018-11-11T20:19:21.404Z,9.70
2018-11-11T20:21:50.061Z,9.70
2018-11-11T20:24:18.645Z,9.70
2018-11-11T20:26:47.230Z,9.70
2018-11-11T20:29:15.805Z,9.70
2018-11-11T20:31:44.481Z,9.70
2018-11-11T20:34:12.981Z,9.60
2018-11-11T20:36:41.509Z,9.60
2018-11-11T20:39:11.879Z,9.60
2018-11-11T20:41:40.436Z,9.60
2018-11-11T20:44:09.722Z,9.60
2018-11-11T20:46:44.747Z,9.60
2018-11-11T20:49:13.380Z,9.60
2018-11-11T20:51:41.932Z,9.60
2018-11-11T20:54:10.541Z,9.60
2018-11-11T20:56:39.181Z,9.50
2018-11-11T20:59:07.835Z,9.50
2018-11-11T21:01:36.383Z,9.50
2018-11-11T21:04:05.185Z,9.50
2018-11-11T21:06:33.785Z,9.50
2018-11-11T21:09:02.572Z,9.50
2018-11-11T21:11:31.172Z,9.50
2018-11-11T21:13:59.692Z,9.50
2018-11-11T21:16:28.244Z,9.50
2018-11-11T21:18:56.807Z,9.50
2018-11-11T21:21:25.363Z,9.50
2018-11-11T21:23:53.908Z,9.40
2018-11-11T21:26:22.456Z,9.40
2018-11-11T21:28:50.982Z,9.50
2018-11-11T21:31:19.540Z,9.40
2018-11-11T21:33:48.107Z,9.40
2018-11-11T21:36:16.639Z,9.40
2018-11-11T21:38:45.193Z,9.30
2018-11-11T21:41:13.772Z,9.30
2018-11-11T21:43:42.340Z,9.40
2018-11-11T21:46:10.872Z,9.40
2018-11-11T21:48:39.432Z,9.40
2018-11-11T21:51:07.999Z,9.50
2018-11-11T21:53:37.804Z,9.50
2018-11-11T21:56:06.698Z,9.50
2018-11-11T21:58:35.308Z,9.50
2018-11-11T22:01:03.972Z,9.50
2018-11-11T22:03:32.554Z,9.40
2018-11-11T22:06:01.284Z,9.40
2018-11-11T22:08:29.886Z,9.40
2018-11-11T22:10:58.434Z,9.30
2018-11-11T22:13:26.984Z,9.30
2018-11-11T22:15:55.648Z,9.30
2018-11-11T22:18:24.117Z,9.30
2018-11-11T22:20:52.684Z,9.30
2018-11-11T22:23:21.478Z,9.30
2018-11-11T22:25:50.035Z,9.30
2018-11-11T22:28:18.580Z,9.30
2018-11-11T22:30:47.133Z,9.20
2018-11-11T22:33:15.705Z,9.20
2018-11-11T22:35:44.244Z,9.20
2018-11-11T22:38:12.796Z,9.20
2018-11-11T22:40:41.327Z,9.30
2018-11-11T22:43:09.893Z,9.40
2018-11-11T22:45:38.449Z,9.40
2018-11-11T22:48:07.177Z,9.40
2018-11-11T22:50:35.719Z,9.40
2018-11-11T22:53:04.285Z,9.40
2018-11-11T22:55:32.837Z,9.40
2018-11-11T22:58:01.377Z,9.40
2018-11-11T23:00:31.019Z,9.40
2018-11-11T23:02:59.722Z,9.40
2018-11-11T23:05:28.285Z,9.40
2018-11-11T23:07:56.836Z,9.40
2018-11-11T23:10:25.398Z,9.40
2018-11-11T23:12:53.935Z,9.30
2018-11-11T23:15:22.968Z,9.30
2018-11-11T23:17:51.533Z,9.30
2018-11-11T23:20:20.802Z,9.30
2018-11-11T23:22:49.344Z,9.20
2018-11-11T23:25:18.356Z,9.20
2018-11-11T23:27:46.909Z,9.10
2018-11-11T23:30:20.997Z,9.10
2018-11-11T23:32:49.784Z,9.00
2018-11-11T23:35:18.384Z,8.90
2018-11-11T23:37:47.123Z,8.80
2018-11-11T23:40:16.805Z,8.70
2018-11-11T23:42:46.025Z,8.70
2018-11-11T23:45:14.629Z,8.70
2018-11-11T23:47:43.160Z,8.60
2018-11-11T23:50:14.395Z,8.60
2018-11-11T23:52:43.525Z,8.60
2018-11-11T23:55:13.461Z,8.60
2018-11-11T23:57:42.018Z,8.50
